sensor_id;sensor_type;location;lat;lon;timestamp;pressure;altitude;pressure_sealevel;temperature;humidity
28456;BME280;15682;56.742;38.866;2024-03-08T00:00:38;99480.0;;;-5.3;91.4
28456;BME280;15682;56.742;38.866;2024-03-08T00:02:38;99480.0;;;-5.3;90.8
28456;BME280;15682;56.742;38.866;2024-03-08T00:04:38;99460.0;;;-5.3;90.9
28456;BME280;15682;56.742;38.866;2024-03-08T00:06:38;99460.0;;;-5.3;90.9
28456;BME280;15682;56.742;38.866;2024-03-08T00:08:38;99460.0;;;-5.3;91.5
28456;BME280;15682;56.742;38.866;2024-03-08T00:10:37;99460.0;;;-5.1;90.4
28456;BME280;15682;56.742;38.866;2024-03-08T00:12:37;99460.0;;;-5.1;89.6
28456;BME280;15682;56.742;38.866;2024-03-08T00:14:37;99450.0;;;-5.2;90.3
28456;BME280;15682;56.742;38.866;2024-03-08T00:16:37;99450.0;;;-5.1;90.3
28456;BME280;15682;56.742;38.866;2024-03-08T00:18:37;99450.0;;;-5.1;90.9
28456;BME280;15682;56.742;38.866;2024-03-08T00:20:37;99450.0;;;-5.2;91.4
28456;BME280;15682;56.742;38.866;2024-03-08T00:22:37;99440.0;;;-5.2;91.4
28456;BME280;15682;56.742;38.866;2024-03-08T00:24:36;99440.0;;;-5.4;90.2
28456;BME280;15682;56.742;38.866;2024-03-08T00:26:36;99440.0;;;-5.3;91.2
28456;BME280;15682;56.742;38.866;2024-03-08T00:28:36;99440.0;;;-5.3;91.0
28456;BME280;15682;56.742;38.866;2024-03-08T00:30:36;99440.0;;;-5.2;91.0
28456;BME280;15682;56.742;38.866;2024-03-08T00:32:36;99440.0;;;-5.2;90.0
28456;BME280;15682;56.742;38.866;2024-03-08T00:34:36;99440.0;;;-5.2;90.9
28456;BME280;15682;56.742;38.866;2024-03-08T00:36:35;99440.0;;;-5.2;91.0
28456;BME280;15682;56.742;38.866;2024-03-08T00:38:35;99440.0;;;-5.2;91.0
28456;BME280;15682;56.742;38.866;2024-03-08T00:40:35;99440.0;;;-5.2;91.0
28456;BME280;15682;56.742;38.866;2024-03-08T00:42:35;99440.0;;;-5.2;90.8
28456;BME280;15682;56.742;38.866;2024-03-08T00:44:35;99440.0;;;-5.2;90.8
28456;BME280;15682;56.742;38.866;2024-03-08T00:46:34;99440.0;;;-5.3;90.8
28456;BME280;15682;56.742;38.866;2024-03-08T00:48:34;99440.0;;;-5.3;91.5
28456;BME280;15682;56.742;38.866;2024-03-08T00:50:34;99440.0;;;-5.3;90.8
28456;BME280;15682;56.742;38.866;2024-03-08T00:52:34;99430.0;;;-5.1;92.0
28456;BME280;15682;56.742;38.866;2024-03-08T00:54:34;99420.0;;;-5.3;91.0
28456;BME280;15682;56.742;38.866;2024-03-08T00:56:34;99420.0;;;-5.3;91.0
28456;BME280;15682;56.742;38.866;2024-03-08T00:58:33;99420.0;;;-5.3;90.4
28456;BME280;15682;56.742;38.866;2024-03-08T01:00:33;99420.0;;;-5.3;90.4
28456;BME280;15682;56.742;38.866;2024-03-08T01:02:33;99410.0;;;-5.3;90.4
28456;BME280;15682;56.742;38.866;2024-03-08T01:04:33;99410.0;;;-5.3;90.9
28456;BME280;15682;56.742;38.866;2024-03-08T01:06:33;99400.0;;;-5.2;90.9
28456;BME280;15682;56.742;38.866;2024-03-08T01:08:33;99400.0;;;-5.1;91.8
28456;BME280;15682;56.742;38.866;2024-03-08T01:10:32;99400.0;;;-5.1;92.7
28456;BME280;15682;56.742;38.866;2024-03-08T01:12:32;99380.0;;;-5.1;91.4
28456;BME280;15682;56.742;38.866;2024-03-08T01:14:32;99380.0;;;-5.1;91.3
28456;BME280;15682;56.742;38.866;2024-03-08T01:16:32;99380.0;;;-5.1;92.4
28456;BME280;15682;56.742;38.866;2024-03-08T01:18:32;99380.0;;;-5.3;91.4
28456;BME280;15682;56.742;38.866;2024-03-08T01:20:31;99370.0;;;-5.3;92.1
28456;BME280;15682;56.742;38.866;2024-03-08T01:22:31;99370.0;;;-5.1;92.1
28456;BME280;15682;56.742;38.866;2024-03-08T01:24:31;99370.0;;;-5.3;91.1
28456;BME280;15682;56.742;38.866;2024-03-08T01:26:31;99360.0;;;-5.2;92.4
28456;BME280;15682;56.742;38.866;2024-03-08T01:28:31;99350.0;;;-5.2;91.7
28456;BME280;15682;56.742;38.866;2024-03-08T01:30:31;99350.0;;;-5.2;91.9
28456;BME280;15682;56.742;38.866;2024-03-08T01:32:30;99350.0;;;-5.2;91.9
28456;BME280;15682;56.742;38.866;2024-03-08T01:34:30;99350.0;;;-5.2;91.2
28456;BME280;15682;56.742;38.866;2024-03-08T01:36:30;99350.0;;;-5.2;92.3
28456;BME280;15682;56.742;38.866;2024-03-08T01:38:30;99350.0;;;-5.0;91.5
28456;BME280;15682;56.742;38.866;2024-03-08T01:40:30;99350.0;;;-5.0;90.9
28456;BME280;15682;56.742;38.866;2024-03-08T01:42:30;99360.0;;;-5.0;90.9
28456;BME280;15682;56.742;38.866;2024-03-08T01:44:29;99360.0;;;-5.0;92.1
28456;BME280;15682;56.742;38.866;2024-03-08T01:46:30;99360.0;;;-5.1;92.1
28456;BME280;15682;56.742;38.866;2024-03-08T01:48:30;99370.0;;;-5.1;92.1
28456;BME280;15682;56.742;38.866;2024-03-08T01:50:29;99370.0;;;-4.9;92.1
28456;BME280;15682;56.742;38.866;2024-03-08T01:52:29;99370.0;;;-5.1;91.5
28456;BME280;15682;56.742;38.866;2024-03-08T01:54:29;99370.0;;;-5.3;92.0
28456;BME280;15682;56.742;38.866;2024-03-08T01:56:29;99370.0;;;-5.2;92.0
28456;BME280;15682;56.742;38.866;2024-03-08T01:58:29;99370.0;;;-5.1;92.0
28456;BME280;15682;56.742;38.866;2024-03-08T02:00:28;99370.0;;;-5.1;92.0
28456;BME280;15682;56.742;38.866;2024-03-08T02:02:28;99370.0;;;-5.1;92.0
28456;BME280;15682;56.742;38.866;2024-03-08T02:04:28;99370.0;;;-5.1;92.6
28456;BME280;15682;56.742;38.866;2024-03-08T02:06:27;99370.0;;;-5.2;92.6
28456;BME280;15682;56.742;38.866;2024-03-08T02:08:27;99370.0;;;-5.2;91.8
28456;BME280;15682;56.742;38.866;2024-03-08T02:10:27;99350.0;;;-5.2;92.5
28456;BME280;15682;56.742;38.866;2024-03-08T02:12:27;99330.0;;;-5.2;92.5
28456;BME280;15682;56.742;38.866;2024-03-08T02:14:27;99330.0;;;-5.2;92.4
28456;BME280;15682;56.742;38.866;2024-03-08T02:16:27;99330.0;;;-5.4;93.1
28456;BME280;15682;56.742;38.866;2024-03-08T02:18:28;99330.0;;;-5.1;94.4
28456;BME280;15682;56.742;38.866;2024-03-08T02:20:28;99330.0;;;-5.2;93.0
28456;BME280;15682;56.742;38.866;2024-03-08T02:22:26;99330.0;;;-5.2;93.5
28456;BME280;15682;56.742;38.866;2024-03-08T02:24:26;99330.0;;;-5.2;94.0
28456;BME280;15682;56.742;38.866;2024-03-08T02:26:26;99330.0;;;-5.2;94.2
28456;BME280;15682;56.742;38.866;2024-03-08T02:28:25;99330.0;;;-5.2;92.7
28456;BME280;15682;56.742;38.866;2024-03-08T02:30:25;99330.0;;;-5.2;93.4
28456;BME280;15682;56.742;38.866;2024-03-08T02:32:25;99330.0;;;-5.2;93.4
28456;BME280;15682;56.742;38.866;2024-03-08T02:34:25;99330.0;;;-5.2;94.3
28456;BME280;15682;56.742;38.866;2024-03-08T02:36:25;99330.0;;;-5.4;94.3
28456;BME280;15682;56.742;38.866;2024-03-08T02:38:25;99330.0;;;-5.4;94.3
28456;BME280;15682;56.742;38.866;2024-03-08T02:40:24;99330.0;;;-5.4;95.0
28456;BME280;15682;56.742;38.866;2024-03-08T02:42:24;99330.0;;;-5.2;95.0
28456;BME280;15682;56.742;38.866;2024-03-08T02:44:24;99330.0;;;-5.2;95.2
28456;BME280;15682;56.742;38.866;2024-03-08T02:46:24;99330.0;;;-5.4;95.2
28456;BME280;15682;56.742;38.866;2024-03-08T02:48:24;99330.0;;;-5.4;95.5
28456;BME280;15682;56.742;38.866;2024-03-08T02:50:24;99330.0;;;-5.4;95.5
28456;BME280;15682;56.742;38.866;2024-03-08T02:52:23;99330.0;;;-5.4;95.5
28456;BME280;15682;56.742;38.866;2024-03-08T02:54:23;99330.0;;;-5.4;95.4
28456;BME280;15682;56.742;38.866;2024-03-08T02:56:23;99320.0;;;-5.4;95.4
28456;BME280;15682;56.742;38.866;2024-03-08T02:58:23;99320.0;;;-5.4;95.4
28456;BME280;15682;56.742;38.866;2024-03-08T03:00:23;99320.0;;;-5.4;95.4
28456;BME280;15682;56.742;38.866;2024-03-08T03:02:22;99320.0;;;-5.2;95.4
28456;BME280;15682;56.742;38.866;2024-03-08T03:04:22;99320.0;;;-5.4;95.5
28456;BME280;15682;56.742;38.866;2024-03-08T03:06:22;99320.0;;;-5.3;95.5
28456;BME280;15682;56.742;38.866;2024-03-08T03:08:22;99320.0;;;-5.3;96.0
28456;BME280;15682;56.742;38.866;2024-03-08T03:10:22;99320.0;;;-5.3;96.0
28456;BME280;15682;56.742;38.866;2024-03-08T03:12:22;99310.0;;;-5.3;95.5
28456;BME280;15682;56.742;38.866;2024-03-08T03:14:21;99310.0;;;-5.3;96.4
28456;BME280;15682;56.742;38.866;2024-03-08T03:16:21;99310.0;;;-5.4;96.1
28456;BME280;15682;56.742;38.866;2024-03-08T03:18:21;99300.0;;;-5.4;96.1
28456;BME280;15682;56.742;38.866;2024-03-08T03:20:21;99300.0;;;-5.4;96.1
28456;BME280;15682;56.742;38.866;2024-03-08T03:22:21;99300.0;;;-5.4;96.1
28456;BME280;15682;56.742;38.866;2024-03-08T03:24:20;99300.0;;;-5.3;95.6
28456;BME280;15682;56.742;38.866;2024-03-08T03:26:20;99290.0;;;-5.2;95.6
28456;BME280;15682;56.742;38.866;2024-03-08T03:28:20;99290.0;;;-5.2;95.5
28456;BME280;15682;56.742;38.866;2024-03-08T03:30:20;99290.0;;;-5.2;95.5
28456;BME280;15682;56.742;38.866;2024-03-08T03:32:20;99280.0;;;-5.2;95.5
28456;BME280;15682;56.742;38.866;2024-03-08T03:34:19;99280.0;;;-5.2;95.6
28456;BME280;15682;56.742;38.866;2024-03-08T03:36:19;99280.0;;;-5.3;95.6
28456;BME280;15682;56.742;38.866;2024-03-08T03:38:19;99280.0;;;-5.3;95.6
28456;BME280;15682;56.742;38.866;2024-03-08T03:40:19;99280.0;;;-5.3;95.6
28456;BME280;15682;56.742;38.866;2024-03-08T03:42:19;99280.0;;;-5.4;95.6
28456;BME280;15682;56.742;38.866;2024-03-08T03:44:19;99280.0;;;-5.4;95.6
28456;BME280;15682;56.742;38.866;2024-03-08T03:46:18;99270.0;;;-5.3;95.6
28456;BME280;15682;56.742;38.866;2024-03-08T03:48:18;99270.0;;;-5.3;95.6
28456;BME280;15682;56.742;38.866;2024-03-08T03:50:18;99270.0;;;-5.4;95.6
28456;BME280;15682;56.742;38.866;2024-03-08T03:52:18;99270.0;;;-5.4;95.6
28456;BME280;15682;56.742;38.866;2024-03-08T03:54:18;99260.0;;;-5.4;95.6
28456;BME280;15682;56.742;38.866;2024-03-08T03:56:17;99260.0;;;-5.4;95.6
28456;BME280;15682;56.742;38.866;2024-03-08T03:58:17;99260.0;;;-5.4;95.6
28456;BME280;15682;56.742;38.866;2024-03-08T04:00:17;99260.0;;;-5.4;95.6
28456;BME280;15682;56.742;38.866;2024-03-08T04:02:17;99260.0;;;-5.4;95.6
28456;BME280;15682;56.742;38.866;2024-03-08T04:04:17;99260.0;;;-5.2;96.2
28456;BME280;15682;56.742;38.866;2024-03-08T04:06:17;99260.0;;;-5.2;95.4
28456;BME280;15682;56.742;38.866;2024-03-08T04:08:16;99260.0;;;-5.2;94.9
28456;BME280;15682;56.742;38.866;2024-03-08T04:10:16;99260.0;;;-5.2;95.5
28456;BME280;15682;56.742;38.866;2024-03-08T04:12:16;99260.0;;;-5.4;94.8
28456;BME280;15682;56.742;38.866;2024-03-08T04:14:16;99260.0;;;-5.4;95.8
28456;BME280;15682;56.742;38.866;2024-03-08T04:16:16;99260.0;;;-5.4;95.8
28456;BME280;15682;56.742;38.866;2024-03-08T04:18:15;99260.0;;;-5.4;95.8
28456;BME280;15682;56.742;38.866;2024-03-08T04:20:15;99250.0;;;-5.4;95.2
28456;BME280;15682;56.742;38.866;2024-03-08T04:22:15;99250.0;;;-5.4;95.2
28456;BME280;15682;56.742;38.866;2024-03-08T04:24:15;99250.0;;;-5.4;95.4
28456;BME280;15682;56.742;38.866;2024-03-08T04:26:15;99240.0;;;-5.3;95.7
28456;BME280;15682;56.742;38.866;2024-03-08T04:28:14;99240.0;;;-5.1;95.7
28456;BME280;15682;56.742;38.866;2024-03-08T04:30:14;99240.0;;;-5.2;95.7
28456;BME280;15682;56.742;38.866;2024-03-08T04:32:14;99250.0;;;-5.2;95.7
28456;BME280;15682;56.742;38.866;2024-03-08T04:34:14;99250.0;;;-5.4;95.6
28456;BME280;15682;56.742;38.866;2024-03-08T04:36:14;99250.0;;;-5.3;95.6
28456;BME280;15682;56.742;38.866;2024-03-08T04:38:14;99250.0;;;-5.2;95.6
28456;BME280;15682;56.742;38.866;2024-03-08T04:40:13;99250.0;;;-5.2;96.4
28456;BME280;15682;56.742;38.866;2024-03-08T04:42:14;99240.0;;;-5.2;95.4
28456;BME280;15682;56.742;38.866;2024-03-08T04:44:13;99240.0;;;-5.2;96.0
28456;BME280;15682;56.742;38.866;2024-03-08T04:46:13;99240.0;;;-5.1;96.0
28456;BME280;15682;56.742;38.866;2024-03-08T04:48:13;99240.0;;;-5.1;95.9
28456;BME280;15682;56.742;38.866;2024-03-08T04:50:13;99240.0;;;-5.1;95.9
28456;BME280;15682;56.742;38.866;2024-03-08T04:52:12;99240.0;;;-5.0;95.3
28456;BME280;15682;56.742;38.866;2024-03-08T04:54:12;99240.0;;;-4.9;96.1
28456;BME280;15682;56.742;38.866;2024-03-08T04:56:12;99240.0;;;-4.9;95.6
28456;BME280;15682;56.742;38.866;2024-03-08T04:58:12;99240.0;;;-4.9;95.1
28456;BME280;15682;56.742;38.866;2024-03-08T05:00:12;99240.0;;;-4.7;95.6
28456;BME280;15682;56.742;38.866;2024-03-08T05:02:11;99230.0;;;-5.0;94.3
28456;BME280;15682;56.742;38.866;2024-03-08T05:04:11;99230.0;;;-4.8;95.0
28456;BME280;15682;56.742;38.866;2024-03-08T05:06:11;99230.0;;;-4.8;95.0
28456;BME280;15682;56.742;38.866;2024-03-08T05:08:11;99230.0;;;-4.7;94.3
28456;BME280;15682;56.742;38.866;2024-03-08T05:10:11;99230.0;;;-4.7;94.9
28456;BME280;15682;56.742;38.866;2024-03-08T05:12:11;99230.0;;;-4.7;94.9
28456;BME280;15682;56.742;38.866;2024-03-08T05:14:11;99230.0;;;-4.7;94.2
28456;BME280;15682;56.742;38.866;2024-03-08T05:16:10;99230.0;;;-4.5;94.8
28456;BME280;15682;56.742;38.866;2024-03-08T05:18:10;99230.0;;;-4.5;94.8
28456;BME280;15682;56.742;38.866;2024-03-08T05:20:10;99230.0;;;-4.5;94.8
28456;BME280;15682;56.742;38.866;2024-03-08T05:22:10;99230.0;;;-4.4;94.0
28456;BME280;15682;56.742;38.866;2024-03-08T05:24:10;99230.0;;;-4.4;94.3
28456;BME280;15682;56.742;38.866;2024-03-08T05:26:09;99230.0;;;-4.3;95.0
28456;BME280;15682;56.742;38.866;2024-03-08T05:28:09;99230.0;;;-4.3;94.3
28456;BME280;15682;56.742;38.866;2024-03-08T05:30:10;99230.0;;;-4.3;94.3
28456;BME280;15682;56.742;38.866;2024-03-08T05:32:09;99230.0;;;-4.2;95.0
28456;BME280;15682;56.742;38.866;2024-03-08T05:34:09;99230.0;;;-4.2;94.3
28456;BME280;15682;56.742;38.866;2024-03-08T05:36:09;99230.0;;;-4.3;94.3
28456;BME280;15682;56.742;38.866;2024-03-08T05:38:09;99220.0;;;-4.4;94.3
28456;BME280;15682;56.742;38.866;2024-03-08T05:40:09;99220.0;;;-4.1;94.5
28456;BME280;15682;56.742;38.866;2024-03-08T05:42:08;99220.0;;;-4.1;94.5
28456;BME280;15682;56.742;38.866;2024-03-08T05:44:09;99220.0;;;-3.9;94.8
28456;BME280;15682;56.742;38.866;2024-03-08T05:46:08;99220.0;;;-4.0;94.8
28456;BME280;15682;56.742;38.866;2024-03-08T05:48:08;99220.0;;;-4.1;93.9
28456;BME280;15682;56.742;38.866;2024-03-08T05:50:08;99220.0;;;-3.9;94.4
28456;BME280;15682;56.742;38.866;2024-03-08T05:52:08;99220.0;;;-3.9;93.6
28456;BME280;15682;56.742;38.866;2024-03-08T05:54:09;99220.0;;;-3.9;94.2
28456;BME280;15682;56.742;38.866;2024-03-08T05:56:07;99220.0;;;-3.9;94.2
28456;BME280;15682;56.742;38.866;2024-03-08T05:58:07;99220.0;;;-3.9;94.2
28456;BME280;15682;56.742;38.866;2024-03-08T06:00:08;99220.0;;;-3.8;95.0
28456;BME280;15682;56.742;38.866;2024-03-08T06:02:07;99220.0;;;-3.8;93.1
28456;BME280;15682;56.742;38.866;2024-03-08T06:04:07;99220.0;;;-3.8;93.9
28456;BME280;15682;56.742;38.866;2024-03-08T06:06:07;99220.0;;;-3.7;93.9
28456;BME280;15682;56.742;38.866;2024-03-08T06:08:06;99220.0;;;-3.7;93.9
28456;BME280;15682;56.742;38.866;2024-03-08T06:10:08;99220.0;;;-3.7;94.0
28456;BME280;15682;56.742;38.866;2024-03-08T06:12:06;99220.0;;;-3.6;94.0
28456;BME280;15682;56.742;38.866;2024-03-08T06:14:06;99220.0;;;-3.5;94.3
28456;BME280;15682;56.742;38.866;2024-03-08T06:16:06;99220.0;;;-3.5;94.3
28456;BME280;15682;56.742;38.866;2024-03-08T06:18:06;99220.0;;;-3.5;93.3
28456;BME280;15682;56.742;38.866;2024-03-08T06:20:07;99220.0;;;-3.5;93.9
28456;BME280;15682;56.742;38.866;2024-03-08T06:22:06;99220.0;;;-3.5;93.9
28456;BME280;15682;56.742;38.866;2024-03-08T06:24:05;99220.0;;;-3.5;94.1
28456;BME280;15682;56.742;38.866;2024-03-08T06:26:05;99220.0;;;-3.4;94.1
28456;BME280;15682;56.742;38.866;2024-03-08T06:28:06;99220.0;;;-3.4;94.1
28456;BME280;15682;56.742;38.866;2024-03-08T06:30:06;99220.0;;;-3.4;93.3
28456;BME280;15682;56.742;38.866;2024-03-08T06:32:05;99220.0;;;-3.2;93.4
28456;BME280;15682;56.742;38.866;2024-03-08T06:34:05;99220.0;;;-3.2;93.7
28456;BME280;15682;56.742;38.866;2024-03-08T06:36:05;99220.0;;;-3.3;93.7
28456;BME280;15682;56.742;38.866;2024-03-08T06:38:04;99220.0;;;-3.1;93.7
28456;BME280;15682;56.742;38.866;2024-03-08T06:40:05;99220.0;;;-3.1;92.8
28456;BME280;15682;56.742;38.866;2024-03-08T06:42:04;99220.0;;;-3.1;92.8
28456;BME280;15682;56.742;38.866;2024-03-08T06:44:04;99220.0;;;-2.9;93.7
28456;BME280;15682;56.742;38.866;2024-03-08T06:46:04;99220.0;;;-3.0;93.2
28456;BME280;15682;56.742;38.866;2024-03-08T06:48:05;99220.0;;;-2.8;92.4
28456;BME280;15682;56.742;38.866;2024-03-08T06:50:05;99220.0;;;-3.0;93.0
28456;BME280;15682;56.742;38.866;2024-03-08T06:52:04;99220.0;;;-3.0;93.2
28456;BME280;15682;56.742;38.866;2024-03-08T06:54:04;99220.0;;;-2.7;93.2
28456;BME280;15682;56.742;38.866;2024-03-08T06:56:04;99220.0;;;-2.6;92.7
28456;BME280;15682;56.742;38.866;2024-03-08T06:58:03;99220.0;;;-2.6;92.7
28456;BME280;15682;56.742;38.866;2024-03-08T07:00:04;99210.0;;;-2.6;92.1
28456;BME280;15682;56.742;38.866;2024-03-08T07:02:03;99210.0;;;-2.6;92.1
28456;BME280;15682;56.742;38.866;2024-03-08T07:04:03;99210.0;;;-2.6;92.4
28456;BME280;15682;56.742;38.866;2024-03-08T07:06:03;99210.0;;;-2.7;92.4
28456;BME280;15682;56.742;38.866;2024-03-08T07:08:03;99210.0;;;-2.6;91.5
28456;BME280;15682;56.742;38.866;2024-03-08T07:10:03;99210.0;;;-2.6;91.5
28456;BME280;15682;56.742;38.866;2024-03-08T07:12:02;99210.0;;;-2.6;91.5
28456;BME280;15682;56.742;38.866;2024-03-08T07:14:02;99210.0;;;-2.4;91.8
28456;BME280;15682;56.742;38.866;2024-03-08T07:16:02;99210.0;;;-2.3;91.8
28456;BME280;15682;56.742;38.866;2024-03-08T07:18:02;99210.0;;;-2.3;91.8
28456;BME280;15682;56.742;38.866;2024-03-08T07:20:02;99210.0;;;-2.3;91.8
28456;BME280;15682;56.742;38.866;2024-03-08T07:22:02;99210.0;;;-2.2;90.9
28456;BME280;15682;56.742;38.866;2024-03-08T07:24:02;99210.0;;;-2.2;91.1
28456;BME280;15682;56.742;38.866;2024-03-08T07:26:02;99210.0;;;-2.0;91.1
28456;BME280;15682;56.742;38.866;2024-03-08T07:28:01;99210.0;;;-1.8;91.1
28456;BME280;15682;56.742;38.866;2024-03-08T07:30:01;99210.0;;;-1.8;90.4
28456;BME280;15682;56.742;38.866;2024-03-08T07:32:01;99210.0;;;-1.8;90.4
28456;BME280;15682;56.742;38.866;2024-03-08T07:34:01;99210.0;;;-1.8;90.8
28456;BME280;15682;56.742;38.866;2024-03-08T07:36:01;99210.0;;;-1.7;91.3
28456;BME280;15682;56.742;38.866;2024-03-08T07:38:01;99210.0;;;-1.7;90.6
28456;BME280;15682;56.742;38.866;2024-03-08T07:40:01;99210.0;;;-1.6;90.6
28456;BME280;15682;56.742;38.866;2024-03-08T07:42:01;99210.0;;;-1.6;89.8
28456;BME280;15682;56.742;38.866;2024-03-08T07:44:01;99210.0;;;-1.4;89.7
28456;BME280;15682;56.742;38.866;2024-03-08T07:46:01;99210.0;;;-1.4;89.7
28456;BME280;15682;56.742;38.866;2024-03-08T07:48:00;99210.0;;;-1.4;89.7
28456;BME280;15682;56.742;38.866;2024-03-08T07:50:01;99200.0;;;-1.4;89.7
28456;BME280;15682;56.742;38.866;2024-03-08T07:52:00;99200.0;;;-1.3;89.7
28456;BME280;15682;56.742;38.866;2024-03-08T07:54:00;99180.0;;;-1.3;89.5
28456;BME280;15682;56.742;38.866;2024-03-08T07:56:00;99180.0;;;-1.1;89.5
28456;BME280;15682;56.742;38.866;2024-03-08T07:58:00;99180.0;;;-1.0;89.0
28456;BME280;15682;56.742;38.866;2024-03-08T08:00:00;99180.0;;;-1.0;89.0
28456;BME280;15682;56.742;38.866;2024-03-08T08:02:00;99180.0;;;-0.8;89.0
28456;BME280;15682;56.742;38.866;2024-03-08T08:04:00;99180.0;;;-0.6;88.8
28456;BME280;15682;56.742;38.866;2024-03-08T08:06:00;99180.0;;;-0.5;88.8
28456;BME280;15682;56.742;38.866;2024-03-08T08:08:00;99180.0;;;-0.5;88.1
28456;BME280;15682;56.742;38.866;2024-03-08T08:10:00;99180.0;;;-0.8;88.9
28456;BME280;15682;56.742;38.866;2024-03-08T08:12:00;99180.0;;;-0.9;88.9
28456;BME280;15682;56.742;38.866;2024-03-08T08:14:00;99180.0;;;-0.6;89.4
28456;BME280;15682;56.742;38.866;2024-03-08T08:16:00;99180.0;;;-0.5;89.4
28456;BME280;15682;56.742;38.866;2024-03-08T08:18:00;99180.0;;;-0.5;89.4
28456;BME280;15682;56.742;38.866;2024-03-08T08:19:59;99180.0;;;-0.1;87.7
28456;BME280;15682;56.742;38.866;2024-03-08T08:21:59;99170.0;;;-0.1;87.7
28456;BME280;15682;56.742;38.866;2024-03-08T08:23:59;99160.0;;;-0.1;87.5
28456;BME280;15682;56.742;38.866;2024-03-08T08:25:59;99160.0;;;-0.1;87.5
28456;BME280;15682;56.742;38.866;2024-03-08T08:27:59;99160.0;;;-0.1;87.5
28456;BME280;15682;56.742;38.866;2024-03-08T08:29:59;99160.0;;;-0.3;87.5
28456;BME280;15682;56.742;38.866;2024-03-08T08:31:59;99160.0;;;-0.1;87.5
28456;BME280;15682;56.742;38.866;2024-03-08T08:33:59;99160.0;;;0.1;87.8
28456;BME280;15682;56.742;38.866;2024-03-08T08:35:59;99160.0;;;-0.1;87.8
28456;BME280;15682;56.742;38.866;2024-03-08T08:37:59;99160.0;;;-0.1;87.8
28456;BME280;15682;56.742;38.866;2024-03-08T08:39:59;99160.0;;;0.3;87.8
28456;BME280;15682;56.742;38.866;2024-03-08T08:41:59;99160.0;;;0.4;85.8
28456;BME280;15682;56.742;38.866;2024-03-08T08:43:59;99160.0;;;0.2;87.0
28456;BME280;15682;56.742;38.866;2024-03-08T08:45:59;99160.0;;;0.3;87.0
28456;BME280;15682;56.742;38.866;2024-03-08T08:47:59;99160.0;;;0.2;87.0
28456;BME280;15682;56.742;38.866;2024-03-08T08:49:59;99160.0;;;0.3;87.0
28456;BME280;15682;56.742;38.866;2024-03-08T08:51:59;99160.0;;;0.7;86.3
28456;BME280;15682;56.742;38.866;2024-03-08T08:53:59;99160.0;;;0.7;86.5
28456;BME280;15682;56.742;38.866;2024-03-08T08:55:59;99160.0;;;0.9;86.5
28456;BME280;15682;56.742;38.866;2024-03-08T08:57:59;99160.0;;;0.9;85.8
28456;BME280;15682;56.742;38.866;2024-03-08T08:59:59;99160.0;;;0.6;85.8
28456;BME280;15682;56.742;38.866;2024-03-08T09:01:59;99160.0;;;0.5;85.8
28456;BME280;15682;56.742;38.866;2024-03-08T09:03:59;99160.0;;;0.5;86.6
28456;BME280;15682;56.742;38.866;2024-03-08T09:05:59;99160.0;;;0.6;86.6
28456;BME280;15682;56.742;38.866;2024-03-08T09:07:59;99160.0;;;0.4;86.6
28456;BME280;15682;56.742;38.866;2024-03-08T09:09:59;99160.0;;;0.5;87.1
28456;BME280;15682;56.742;38.866;2024-03-08T09:11:59;99160.0;;;0.2;87.9
28456;BME280;15682;56.742;38.866;2024-03-08T09:13:58;99160.0;;;0.2;87.2
28456;BME280;15682;56.742;38.866;2024-03-08T09:15:59;99160.0;;;0.2;87.2
28456;BME280;15682;56.742;38.866;2024-03-08T09:17:58;99160.0;;;0.2;87.9
28456;BME280;15682;56.742;38.866;2024-03-08T09:19:59;99160.0;;;0.2;87.9
28456;BME280;15682;56.742;38.866;2024-03-08T09:21:58;99150.0;;;0.4;87.9
28456;BME280;15682;56.742;38.866;2024-03-08T09:23:58;99150.0;;;0.4;87.4
28456;BME280;15682;56.742;38.866;2024-03-08T09:25:59;99150.0;;;0.3;87.4
28456;BME280;15682;56.742;38.866;2024-03-08T09:27:58;99150.0;;;0.3;88.0
28456;BME280;15682;56.742;38.866;2024-03-08T09:29:58;99150.0;;;0.5;87.5
28456;BME280;15682;56.742;38.866;2024-03-08T09:31:58;99150.0;;;0.5;87.4
28456;BME280;15682;56.742;38.866;2024-03-08T09:33:58;99150.0;;;0.6;86.9
28456;BME280;15682;56.742;38.866;2024-03-08T09:35:58;99150.0;;;0.7;87.2
28456;BME280;15682;56.742;38.866;2024-03-08T09:37:58;99130.0;;;0.8;87.2
28456;BME280;15682;56.742;38.866;2024-03-08T09:39:58;99130.0;;;0.8;86.5
28456;BME280;15682;56.742;38.866;2024-03-08T09:41:58;99130.0;;;0.8;86.5
28456;BME280;15682;56.742;38.866;2024-03-08T09:43:58;99130.0;;;0.9;86.0
28456;BME280;15682;56.742;38.866;2024-03-08T09:45:58;99130.0;;;0.8;86.0
28456;BME280;15682;56.742;38.866;2024-03-08T09:47:58;99130.0;;;1.0;86.0
28456;BME280;15682;56.742;38.866;2024-03-08T09:49:58;99130.0;;;0.8;86.0
28456;BME280;15682;56.742;38.866;2024-03-08T09:51:58;99130.0;;;0.8;86.0
28456;BME280;15682;56.742;38.866;2024-03-08T09:53:58;99130.0;;;1.1;86.8
28456;BME280;15682;56.742;38.866;2024-03-08T09:55:58;99130.0;;;1.0;85.7
28456;BME280;15682;56.742;38.866;2024-03-08T09:57:58;99130.0;;;1.3;85.7
28456;BME280;15682;56.742;38.866;2024-03-08T09:59:58;99130.0;;;1.5;85.1
28456;BME280;15682;56.742;38.866;2024-03-08T10:01:58;99130.0;;;1.5;84.5
28456;BME280;15682;56.742;38.866;2024-03-08T10:03:58;99130.0;;;1.2;84.2
28456;BME280;15682;56.742;38.866;2024-03-08T10:05:58;99130.0;;;1.0;85.6
28456;BME280;15682;56.742;38.866;2024-03-08T10:07:58;99130.0;;;1.1;86.3
28456;BME280;15682;56.742;38.866;2024-03-08T10:09:58;99130.0;;;1.1;86.3
28456;BME280;15682;56.742;38.866;2024-03-08T10:11:58;99130.0;;;1.0;85.8
28456;BME280;15682;56.742;38.866;2024-03-08T10:13:59;99130.0;;;1.0;85.8
28456;BME280;15682;56.742;38.866;2024-03-08T10:15:58;99130.0;;;1.2;85.8
28456;BME280;15682;56.742;38.866;2024-03-08T10:17:58;99130.0;;;1.3;85.2
28456;BME280;15682;56.742;38.866;2024-03-08T10:19:58;99130.0;;;1.4;85.2
28456;BME280;15682;56.742;38.866;2024-03-08T10:21:58;99130.0;;;1.6;84.7
28456;BME280;15682;56.742;38.866;2024-03-08T10:23:58;99130.0;;;1.6;83.7
28456;BME280;15682;56.742;38.866;2024-03-08T10:25:59;99130.0;;;1.4;84.2
28456;BME280;15682;56.742;38.866;2024-03-08T10:27:58;99130.0;;;1.3;84.2
28456;BME280;15682;56.742;38.866;2024-03-08T10:29:58;99130.0;;;1.3;84.9
28456;BME280;15682;56.742;38.866;2024-03-08T10:31:58;99130.0;;;1.5;84.9
28456;BME280;15682;56.742;38.866;2024-03-08T10:33:58;99130.0;;;1.7;84.5
28456;BME280;15682;56.742;38.866;2024-03-08T10:35:59;99130.0;;;1.5;84.2
28456;BME280;15682;56.742;38.866;2024-03-08T10:37:58;99130.0;;;1.7;84.2
28456;BME280;15682;56.742;38.866;2024-03-08T10:40:02;99130.0;;;1.3;84.2
28456;BME280;15682;56.742;38.866;2024-03-08T10:41:58;99130.0;;;1.3;85.5
28456;BME280;15682;56.742;38.866;2024-03-08T10:44:10;99130.0;;;1.5;85.1
28456;BME280;15682;56.742;38.866;2024-03-08T10:46:06;99130.0;;;1.4;85.1
28456;BME280;15682;56.742;38.866;2024-03-08T10:48:17;99130.0;;;1.4;84.9
28456;BME280;15682;56.742;38.866;2024-03-08T10:50:16;99120.0;;;1.8;84.2
28456;BME280;15682;56.742;38.866;2024-03-08T10:51:58;99110.0;;;1.8;83.5
28456;BME280;15682;56.742;38.866;2024-03-08T10:53:59;99110.0;;;1.8;83.6